Time;durP1;ratioP1;P1;durP2;ratioP2;P2;SDS_P1;SDS_P2;PMS_P1;PMS_P2;Temp;Humidity;BMP_temperature;BMP_pressure;BME280_temperature;BME280_humidity;BME280_pressure;Samples;Min_cycle;Max_cycle;Signal;HPM_P1;HPM_P2
2023/02/28 00:00:12;;;;;;;7.57;3.47;;;3.60;1.00;;;;;;6161450;23;20318;-80
2023/02/28 00:02:41;;;;;;;10.95;4.05;;;3.50;1.00;;;;;;6159838;23;20938;-78
2023/02/28 00:05:09;;;;;;;11.35;4.45;;;3.40;1.00;;;;;;6162054;23;20218;-79
2023/02/28 00:07:37;;;;;;;8.82;3.83;;;3.30;1.00;;;;;;6160198;23;20273;-81
2023/02/28 00:10:06;;;;;;;8.60;3.60;;;3.30;1.00;;;;;;6159918;23;20215;-80
2023/02/28 00:12:33;;;;;;;8.25;4.05;;;3.30;1.00;;;;;;6156944;23;20314;-80
2023/02/28 00:15:01;;;;;;;8.77;4.00;;;3.30;1.00;;;;;;6160750;23;20690;-78
2023/02/28 00:17:28;;;;;;;9.40;3.80;;;3.20;1.00;;;;;;6161566;23;20215;-82
2023/02/28 00:20:01;;;;;;;9.02;3.90;;;3.20;1.00;;;;;;6164321;23;20219;-78
2023/02/28 00:22:28;;;;;;;8.80;4.15;;;3.10;1.00;;;;;;6161713;23;20215;-80
2023/02/28 00:24:55;;;;;;;8.50;4.03;;;3.10;1.00;;;;;;6161688;23;20242;-80
2023/02/28 00:27:22;;;;;;;8.20;3.42;;;3.00;1.00;;;;;;6162288;23;20215;-80
2023/02/28 00:29:49;;;;;;;9.10;3.65;;;3.00;1.00;;;;;;6163370;23;20218;-79
2023/02/28 00:32:19;;;;;;;8.38;3.78;;;3.00;1.00;;;;;;6133312;23;20289;-79
2023/02/28 00:34:46;;;;;;;8.75;4.00;;;2.90;1.00;;;;;;6160373;23;20211;-80
2023/02/28 00:37:13;;;;;;;8.93;4.28;;;2.90;1.00;;;;;;6161363;23;20223;-80
2023/02/28 00:39:41;;;;;;;9.40;4.40;;;2.90;1.00;;;;;;6157660;23;20876;-75
2023/02/28 00:42:11;;;;;;;7.93;3.40;;;2.90;1.00;;;;;;6156136;23;20223;-75
2023/02/28 00:44:38;;;;;;;9.98;4.22;;;2.90;1.00;;;;;;6156905;23;20281;-75
2023/02/28 00:47:08;;;;;;;9.15;3.80;;;2.90;1.00;;;;;;6160079;23;20233;-74
2023/02/28 00:49:36;;;;;;;13.43;4.38;;;2.90;1.00;;;;;;6158256;23;20293;-75
2023/02/28 00:52:04;;;;;;;10.63;4.90;;;2.90;1.00;;;;;;6157614;23;20999;-75
2023/02/28 00:54:31;;;;;;;10.00;4.20;;;2.90;1.00;;;;;;6159441;23;20214;-76
2023/02/28 00:56:58;;;;;;;9.40;4.20;;;2.90;1.00;;;;;;6157861;23;20708;-75
2023/02/28 00:59:24;;;;;;;9.10;4.55;;;2.90;1.00;;;;;;6157834;23;20211;-76
2023/02/28 01:01:52;;;;;;;11.88;5.28;;;2.90;1.00;;;;;;6156652;23;20602;-75
2023/02/28 01:04:19;;;;;;;10.80;4.20;;;2.90;1.00;;;;;;6155547;23;20214;-75
2023/02/28 01:06:47;;;;;;;10.95;5.25;;;3.00;1.00;;;;;;6159426;23;20273;-76
2023/02/28 01:09:14;;;;;;;10.40;5.30;;;3.00;1.00;;;;;;6158495;23;20214;-76
2023/02/28 01:11:44;;;;;;;10.00;5.03;;;3.00;1.00;;;;;;6156896;23;20727;-75
2023/02/28 01:14:14;;;;;;;11.45;5.30;;;3.00;1.00;;;;;;6158372;23;20229;-74
2023/02/28 01:16:41;;;;;;;9.15;4.68;;;2.90;1.00;;;;;;6157967;23;20222;-76
2023/02/28 01:19:08;;;;;;;8.40;3.92;;;2.80;1.00;;;;;;6160566;23;20277;-75
2023/02/28 01:21:36;;;;;;;10.60;5.00;;;2.80;1.00;;;;;;6159437;23;20969;-76
2023/02/28 01:24:05;;;;;;;9.80;4.60;;;2.70;1.00;;;;;;6160636;23;20301;-75
2023/02/28 01:26:32;;;;;;;10.25;4.90;;;2.70;1.00;;;;;;6159047;23;20242;-75
2023/02/28 01:29:00;;;;;;;9.05;4.25;;;2.60;1.00;;;;;;6159411;23;20247;-75
2023/02/28 01:31:26;;;;;;;9.65;4.60;;;2.60;1.00;;;;;;6157649;23;20301;-75
2023/02/28 01:33:54;;;;;;;9.90;4.55;;;2.60;1.00;;;;;;6137390;23;20221;-76
2023/02/28 01:36:23;;;;;;;10.80;5.05;;;2.50;1.00;;;;;;6142260;23;20396;-76
2023/02/28 01:38:52;;;;;;;11.70;4.93;;;2.50;1.00;;;;;;6160884;23;21052;-76
2023/02/28 01:41:23;;;;;;;11.55;4.65;;;2.50;1.00;;;;;;6160191;23;20218;-75
2023/02/28 01:44:05;;;;;;;11.45;5.57;;;2.40;1.00;;;;;;6159915;23;20238;-76
2023/02/28 01:46:33;;;;;;;9.77;4.78;;;2.30;1.00;;;;;;6158696;23;20943;-76
2023/02/28 01:49:05;;;;;;;11.60;4.70;;;2.30;1.00;;;;;;6160987;23;20277;-76
2023/02/28 01:51:38;;;;;;;9.50;5.38;;;2.20;1.00;;;;;;6158443;23;20218;-75
2023/02/28 01:54:13;;;;;;;9.93;4.70;;;2.10;1.00;;;;;;6160810;23;20306;-75
2023/02/28 01:56:45;;;;;;;11.27;5.78;;;2.00;1.00;;;;;;6157067;23;20573;-75
2023/02/28 01:59:15;;;;;;;13.02;5.20;;;1.90;1.00;;;;;;6159398;23;20215;-74
2023/02/28 02:01:42;;;;;;;10.25;5.40;;;1.90;1.00;;;;;;6160173;23;20198;-78
2023/02/28 02:04:09;;;;;;;12.43;5.30;;;1.80;1.00;;;;;;6161205;23;21156;-74
2023/02/28 02:06:42;;;;;;;14.07;5.88;;;1.70;1.00;;;;;;6161144;23;20314;-76
2023/02/28 02:09:10;;;;;;;12.02;6.72;;;1.70;1.00;;;;;;6163459;23;20246;-75
2023/02/28 02:11:40;;;;;;;13.05;6.20;;;1.70;1.00;;;;;;6162263;23;20218;-75
2023/02/28 02:14:40;;;;;;;12.15;6.35;;;1.60;1.00;;;;;;6163324;23;20233;-75
2023/02/28 02:17:16;;;;;;;14.43;5.85;;;1.60;1.00;;;;;;6158889;23;20582;-75
2023/02/28 02:20:12;;;;;;;12.48;6.00;;;1.60;1.00;;;;;;6161951;23;20277;-76
2023/02/28 02:23:07;;;;;;;13.60;6.50;;;1.60;1.00;;;;;;6161253;23;20218;-76
2023/02/28 02:25:38;;;;;;;12.25;6.28;;;1.50;1.00;;;;;;6158869;23;20275;-75
2023/02/28 02:28:45;;;;;;;15.02;6.28;;;1.50;1.00;;;;;;6161519;23;20618;-75
2023/02/28 02:31:45;;;;;;;11.27;6.53;;;1.40;1.00;;;;;;6091102;23;20237;-76
2023/02/28 02:34:32;;;;;;;12.45;6.25;;;1.40;1.00;;;;;;6148418;23;20621;-75
2023/02/28 02:37:08;;;;;;;13.70;6.60;;;1.30;1.00;;;;;;6156695;23;20244;-76
2023/02/28 02:39:45;;;;;;;10.93;5.88;;;1.30;1.00;;;;;;6155826;23;20222;-76
2023/02/28 02:42:21;;;;;;;12.27;6.13;;;1.20;1.00;;;;;;6159380;23;20219;-76
2023/02/28 02:44:53;;;;;;;11.43;5.93;;;1.20;1.00;;;;;;6137116;23;20932;-76
2023/02/28 02:47:24;;;;;;;10.65;5.80;;;1.30;1.00;;;;;;6157955;23;20219;-76
2023/02/28 02:49:55;;;;;;;16.67;8.40;;;1.30;1.00;;;;;;6158521;23;21009;-75
2023/02/28 02:52:28;;;;;;;12.10;6.47;;;1.30;1.00;;;;;;6156683;23;20218;-75
2023/02/28 02:54:58;;;;;;;12.80;6.25;;;1.30;1.00;;;;;;6157191;23;20257;-76
2023/02/28 02:57:28;;;;;;;13.40;6.68;;;1.30;1.00;;;;;;6155219;23;20215;-75
2023/02/28 02:59:57;;;;;;;14.07;6.68;;;1.30;1.00;;;;;;6157420;23;20214;-76
2023/02/28 03:02:26;;;;;;;11.05;6.20;;;1.30;1.00;;;;;;6155449;23;20215;-75
2023/02/28 03:05:00;;;;;;;11.82;6.35;;;1.40;1.00;;;;;;6157470;23;20346;-77
2023/02/28 03:07:27;;;;;;;12.60;6.30;;;1.40;1.00;;;;;;6156016;23;20225;-75
2023/02/28 03:09:57;;;;;;;13.05;7.85;;;1.50;1.00;;;;;;6157250;23;20221;-75
2023/02/28 03:12:29;;;;;;;13.02;7.68;;;1.40;1.00;;;;;;6154663;23;20215;-76
2023/02/28 03:15:09;;;;;;;11.75;7.15;;;1.40;1.00;;;;;;6155451;23;20214;-76
2023/02/28 03:18:00;;;;;;;15.13;8.55;;;1.40;1.00;;;;;;6155411;23;20223;-76
2023/02/28 03:20:39;;;;;;;10.75;6.30;;;1.30;1.00;;;;;;6158144;23;20242;-76
2023/02/28 03:23:14;;;;;;;13.55;7.28;;;1.30;1.00;;;;;;6159285;23;20218;-77
2023/02/28 03:25:56;;;;;;;16.60;7.47;;;1.30;1.00;;;;;;6142876;23;20243;-75
2023/02/28 03:28:32;;;;;;;13.20;7.25;;;1.30;1.00;;;;;;6158397;23;20219;-76
2023/02/28 03:31:04;;;;;;;16.88;7.25;;;1.30;1.00;;;;;;6159503;23;20249;-76
2023/02/28 03:33:35;;;;;;;10.52;5.90;;;1.20;1.00;;;;;;6157375;23;20257;-76
2023/02/28 03:36:10;;;;;;;10.38;6.60;;;1.20;1.00;;;;;;6160415;23;21016;-76
2023/02/28 03:38:43;;;;;;;12.43;6.38;;;1.10;1.00;;;;;;6158890;23;20222;-76
2023/02/28 03:41:16;;;;;;;14.60;7.30;;;1.00;1.00;;;;;;6159461;23;20301;-76
2023/02/28 03:43:47;;;;;;;14.50;7.60;;;1.00;1.00;;;;;;6146857;23;20218;-77
2023/02/28 03:46:21;;;;;;;11.90;6.65;;;1.00;1.00;;;;;;6157616;23;20239;-77
2023/02/28 03:48:54;;;;;;;13.40;7.60;;;0.90;1.00;;;;;;6159973;23;20229;-75
2023/02/28 03:51:25;;;;;;;12.70;7.13;;;0.90;1.00;;;;;;6160208;23;20215;-76
2023/02/28 03:53:57;;;;;;;13.73;7.57;;;0.80;1.00;;;;;;6132275;23;20762;-76
2023/02/28 03:56:28;;;;;;;13.27;7.22;;;0.80;1.00;;;;;;6157678;23;20306;-76
2023/02/28 03:59:01;;;;;;;12.60;7.10;;;0.70;1.00;;;;;;6158859;23;20242;-77
2023/02/28 04:01:36;;;;;;;13.90;7.25;;;0.70;1.00;;;;;;6156106;23;20215;-75
2023/02/28 04:04:05;;;;;;;14.25;7.57;;;0.60;1.00;;;;;;6157449;23;20218;-76
2023/02/28 04:06:34;;;;;;;14.80;7.88;;;0.60;1.00;;;;;;6159886;23;20219;-76
2023/02/28 04:09:01;;;;;;;13.20;8.27;;;0.60;1.00;;;;;;6158895;23;20306;-75
2023/02/28 04:11:33;;;;;;;14.82;7.75;;;0.60;1.00;;;;;;6157226;23;20206;-77
2023/02/28 04:14:00;;;;;;;10.95;7.40;;;0.50;1.00;;;;;;6159678;23;20215;-76
2023/02/28 04:16:27;;;;;;;14.15;7.28;;;0.50;1.00;;;;;;6157431;23;20273;-75
2023/02/28 04:19:01;;;;;;;18.13;8.82;;;0.40;1.00;;;;;;6155577;23;20278;-76
2023/02/28 04:21:29;;;;;;;15.40;8.88;;;0.30;1.00;;;;;;6156284;23;20713;-75
2023/02/28 04:24:00;;;;;;;19.00;9.52;;;0.30;1.00;;;;;;6159392;23;20220;-76
2023/02/28 04:26:30;;;;;;;18.42;9.00;;;0.30;1.00;;;;;;6156091;23;20226;-76
2023/02/28 04:28:57;;;;;;;17.20;9.00;;;0.30;1.00;;;;;;6159794;23;20297;-76
2023/02/28 04:31:25;;;;;;;14.27;8.10;;;0.30;1.00;;;;;;6157491;23;20219;-76
2023/02/28 04:33:53;;;;;;;15.57;7.60;;;0.20;1.00;;;;;;6157623;23;20464;-76
2023/02/28 04:36:20;;;;;;;12.30;7.32;;;0.20;1.00;;;;;;6156068;23;20293;-77
2023/02/28 04:38:47;;;;;;;13.73;7.40;;;0.20;1.00;;;;;;6157548;23;20214;-75
2023/02/28 04:41:17;;;;;;;13.32;7.75;;;0.10;1.00;;;;;;6157539;23;20972;-77
2023/02/28 04:43:44;;;;;;;12.30;7.65;;;0.00;1.00;;;;;;6156451;23;20259;-76
2023/02/28 04:46:13;;;;;;;14.43;8.50;;;0.00;1.00;;;;;;6158362;23;20242;-76
2023/02/28 04:48:41;;;;;;;12.15;7.45;;;0.00;1.00;;;;;;6156707;23;20302;-76
2023/02/28 04:51:11;;;;;;;14.13;8.43;;;-0.10;1.00;;;;;;6157421;23;20754;-77
2023/02/28 04:53:39;;;;;;;14.85;8.63;;;-0.10;1.00;;;;;;6158067;23;21083;-76
2023/02/28 04:56:07;;;;;;;14.55;8.48;;;-0.10;1.00;;;;;;6158698;23;20219;-76
2023/02/28 04:58:35;;;;;;;14.02;8.15;;;-0.20;1.00;;;;;;6156074;23;20277;-76
2023/02/28 05:01:04;;;;;;;14.35;8.23;;;-0.20;1.00;;;;;;6156679;23;20294;-76
2023/02/28 05:03:31;;;;;;;15.10;8.88;;;-0.20;1.00;;;;;;6154468;23;20215;-76
2023/02/28 05:05:58;;;;;;;15.25;9.13;;;-0.20;1.00;;;;;;6154657;23;20256;-77
2023/02/28 05:08:25;;;;;;;16.30;8.25;;;-0.30;1.00;;;;;;6154912;23;20211;-76
2023/02/28 05:10:54;;;;;;;15.32;9.95;;;-0.30;1.00;;;;;;6154707;23;20215;-76
2023/02/28 05:13:22;;;;;;;14.73;9.23;;;-0.30;1.00;;;;;;6158699;23;20215;-76
2023/02/28 05:15:51;;;;;;;15.55;9.50;;;-0.30;1.00;;;;;;6158339;23;20245;-75
2023/02/28 05:18:18;;;;;;;13.70;8.18;;;-0.30;1.00;;;;;;6156971;23;20215;-74
2023/02/28 05:20:45;;;;;;;14.75;8.70;;;-0.30;1.00;;;;;;6158172;23;20218;-75
2023/02/28 05:23:14;;;;;;;13.70;9.00;;;-0.30;1.00;;;;;;6161088;23;20218;-75
2023/02/28 05:25:41;;;;;;;13.05;8.75;;;-0.30;1.00;;;;;;6159293;23;20230;-76
2023/02/28 05:28:08;;;;;;;14.98;8.80;;;-0.30;1.00;;;;;;6159965;23;20217;-74
2023/02/28 05:30:35;;;;;;;14.65;8.77;;;-0.40;1.00;;;;;;6159074;23;20283;-75
2023/02/28 05:33:04;;;;;;;19.35;9.48;;;-0.30;1.00;;;;;;6133907;23;20226;-76
2023/02/28 05:35:31;;;;;;;16.10;9.88;;;-0.30;1.00;;;;;;6160131;23;20219;-77
2023/02/28 05:37:58;;;;;;;19.05;9.25;;;-0.30;1.00;;;;;;6161074;23;20214;-75
2023/02/28 05:40:25;;;;;;;17.58;10.52;;;-0.30;1.00;;;;;;6157028;23;20223;-76
2023/02/28 05:42:52;;;;;;;17.48;10.07;;;-0.30;1.00;;;;;;6160979;23;20218;-76
2023/02/28 05:45:19;;;;;;;15.60;9.00;;;-0.30;1.00;;;;;;6158406;23;20943;-75
2023/02/28 05:47:46;;;;;;;18.38;9.77;;;-0.30;1.00;;;;;;6159241;23;20218;-76
2023/02/28 05:50:15;;;;;;;14.95;8.77;;;-0.30;1.00;;;;;;6159304;23;20211;-76
2023/02/28 05:52:42;;;;;;;19.27;9.85;;;-0.30;1.00;;;;;;6160055;23;20218;-76
2023/02/28 05:55:09;;;;;;;17.70;9.85;;;-0.30;1.00;;;;;;6160504;23;20294;-77
2023/02/28 05:57:36;;;;;;;14.57;9.43;;;-0.30;1.00;;;;;;6160701;23;20579;-75
2023/02/28 06:00:04;;;;;;;15.95;9.38;;;-0.30;1.00;;;;;;6159239;23;20211;-77
2023/02/28 06:02:31;;;;;;;19.98;9.70;;;-0.30;1.00;;;;;;6157953;23;20219;-77
2023/02/28 06:04:58;;;;;;;15.20;8.95;;;-0.30;1.00;;;;;;6161241;23;20222;-77
2023/02/28 06:07:27;;;;;;;16.67;9.35;;;-0.40;1.00;;;;;;6159327;23;20507;-76
2023/02/28 06:09:54;;;;;;;16.65;10.02;;;-0.40;1.00;;;;;;6155153;23;20225;-79
2023/02/28 06:12:21;;;;;;;15.30;9.48;;;-0.40;1.00;;;;;;6158706;23;20215;-77
2023/02/28 06:14:49;;;;;;;18.42;10.68;;;-0.30;1.00;;;;;;6157036;23;20214;-77
2023/02/28 06:17:16;;;;;;;17.73;10.25;;;-0.30;1.00;;;;;;6134910;23;21079;-79
2023/02/28 06:19:44;;;;;;;24.15;14.60;;;-0.30;1.00;;;;;;6159398;23;20226;-77
2023/02/28 06:22:10;;;;;;;17.50;10.60;;;-0.30;1.00;;;;;;6158037;23;20218;-76
2023/02/28 06:24:39;;;;;;;17.80;10.95;;;-0.20;1.00;;;;;;6152051;23;20214;-77
2023/02/28 06:27:07;;;;;;;16.88;10.50;;;-0.10;1.00;;;;;;6161217;23;20283;-75
2023/02/28 06:29:35;;;;;;;16.92;9.38;;;-0.10;1.00;;;;;;6157390;23;20298;-76
2023/02/28 06:32:02;;;;;;;17.98;10.25;;;0.00;1.00;;;;;;6163027;23;20215;-76
2023/02/28 06:34:30;;;;;;;15.45;9.35;;;0.00;1.00;;;;;;6157740;23;20399;-76
2023/02/28 06:37:02;;;;;;;27.08;11.25;;;0.00;1.00;;;;;;6161076;23;20278;-77
2023/02/28 06:39:29;;;;;;;15.23;9.48;;;0.10;1.00;;;;;;6160846;23;21466;-74
2023/02/28 06:41:57;;;;;;;16.17;10.43;;;0.20;1.00;;;;;;6156618;23;20249;-76
2023/02/28 06:44:25;;;;;;;18.42;10.30;;;0.20;1.00;;;;;;6157256;23;20223;-75
2023/02/28 06:46:52;;;;;;;20.35;12.43;;;0.20;1.00;;;;;;6157214;23;20897;-77
2023/02/28 06:49:19;;;;;;;17.77;11.88;;;0.20;1.00;;;;;;6159249;23;20239;-76
2023/02/28 06:51:46;;;;;;;17.80;11.50;;;0.20;1.00;;;;;;6164121;23;20339;-74
2023/02/28 06:54:13;;;;;;;20.10;9.35;;;0.10;1.00;;;;;;6160851;23;20210;-78
2023/02/28 06:56:40;;;;;;;17.67;10.23;;;0.20;1.00;;;;;;6161702;23;21072;-77
2023/02/28 06:59:09;;;;;;;18.85;11.00;;;0.30;1.00;;;;;;6159570;23;20237;-77
2023/02/28 07:01:36;;;;;;;15.80;10.23;;;0.40;1.00;;;;;;6158812;23;20214;-76
2023/02/28 07:04:03;;;;;;;21.83;13.05;;;0.50;1.00;;;;;;6159983;23;20273;-78
2023/02/28 07:06:30;;;;;;;22.77;11.90;;;0.60;1.00;;;;;;6159479;23;20221;-76
2023/02/28 07:08:57;;;;;;;20.98;12.75;;;0.60;1.00;;;;;;6158614;23;20282;-75
2023/02/28 07:11:26;;;;;;;19.50;12.05;;;0.80;1.00;;;;;;6158718;23;20261;-75
2023/02/28 07:13:53;;;;;;;24.20;14.13;;;0.90;1.00;;;;;;6161757;23;20259;-76
2023/02/28 07:16:23;;;;;;;23.40;13.48;;;1.10;1.00;;;;;;6159770;23;20223;-75
2023/02/28 07:18:52;;;;;;;24.77;15.52;;;1.20;1.00;;;;;;6161276;23;20211;-77
2023/02/28 07:21:20;;;;;;;23.60;12.25;;;1.30;1.00;;;;;;6161051;23;20217;-76
2023/02/28 07:23:47;;;;;;;19.52;12.40;;;1.40;1.00;;;;;;6162355;23;20223;-75
2023/02/28 07:26:16;;;;;;;20.85;12.52;;;1.50;1.00;;;;;;6161121;23;20274;-74
2023/02/28 07:28:44;;;;;;;25.95;13.02;;;1.60;1.00;;;;;;6159026;23;20285;-76
2023/02/28 07:31:13;;;;;;;16.70;11.05;;;1.60;1.00;;;;;;6159584;23;20219;-76
2023/02/28 07:33:42;;;;;;;20.95;11.13;;;1.70;1.00;;;;;;6160713;23;20210;-76
2023/02/28 07:36:15;;;;;;;22.33;12.48;;;1.80;1.00;;;;;;6161709;23;20221;-74
2023/02/28 07:38:43;;;;;;;19.55;11.68;;;2.00;1.00;;;;;;6160284;23;20238;-78
2023/02/28 07:41:10;;;;;;;17.02;10.45;;;2.10;1.00;;;;;;6162891;23;20727;-76
2023/02/28 07:43:40;;;;;;;20.63;12.70;;;2.20;1.00;;;;;;6162595;23;20202;-77
2023/02/28 07:46:09;;;;;;;19.75;9.55;;;2.30;1.00;;;;;;6162562;23;20305;-77
2023/02/28 07:48:36;;;;;;;15.77;8.20;;;2.50;1.00;;;;;;6162438;23;20222;-75
2023/02/28 07:51:07;;;;;;;19.02;10.07;;;2.60;1.00;;;;;;6162837;23;20744;-75
2023/02/28 07:53:34;;;;;;;15.77;8.13;;;2.70;1.00;;;;;;6159988;23;20241;-76
2023/02/28 07:56:03;;;;;;;21.15;8.48;;;2.80;1.00;;;;;;6160646;23;20965;-76
2023/02/28 07:58:31;;;;;;;19.45;9.40;;;3.00;1.00;;;;;;6160267;23;20259;-75
2023/02/28 08:00:58;;;;;;;15.02;8.43;;;3.10;1.00;;;;;;6158656;23;20221;-76
2023/02/28 08:03:25;;;;;;;16.92;8.57;;;3.30;1.00;;;;;;6159795;23;20223;-77
2023/02/28 08:05:53;;;;;;;16.40;8.70;;;3.40;1.00;;;;;;6160081;23;20270;-76
2023/02/28 08:08:21;;;;;;;14.15;6.05;;;3.60;1.00;;;;;;6159086;23;20310;-76
2023/02/28 08:10:50;;;;;;;14.82;6.35;;;3.70;1.00;;;;;;6161432;23;20225;-76
2023/02/28 08:13:17;;;;;;;12.20;5.68;;;3.80;1.00;;;;;;6160642;23;20249;-76
2023/02/28 08:15:45;;;;;;;28.50;8.20;;;3.90;1.00;;;;;;6159677;23;20222;-75
2023/02/28 08:18:12;;;;;;;11.70;5.60;;;4.10;1.00;;;;;;6159868;23;20219;-76
2023/02/28 08:20:39;;;;;;;24.33;7.20;;;4.10;1.00;;;;;;6160647;23;20211;-75
2023/02/28 08:23:06;;;;;;;19.67;5.53;;;4.20;1.00;;;;;;6163043;23;20294;-75
2023/02/28 08:25:35;;;;;;;14.20;6.20;;;4.30;1.00;;;;;;6159789;23;20221;-76
2023/02/28 08:28:02;;;;;;;22.02;6.78;;;4.40;1.00;;;;;;6159481;23;20211;-76
2023/02/28 08:30:29;;;;;;;13.00;5.20;;;4.50;1.00;;;;;;6160811;23;20222;-75
2023/02/28 08:32:56;;;;;;;14.63;5.20;;;4.60;1.00;;;;;;6160352;23;20210;-76
2023/02/28 08:35:24;;;;;;;14.00;5.70;;;4.70;1.00;;;;;;6160683;23;20297;-77
2023/02/28 08:37:51;;;;;;;20.85;5.40;;;4.80;1.00;;;;;;6162293;23;21003;-75
2023/02/28 08:40:19;;;;;;;11.95;3.53;;;4.80;1.00;;;;;;6158241;23;20245;-77
2023/02/28 08:42:49;;;;;;;9.70;4.38;;;4.90;1.00;;;;;;6158972;23;20214;-76
2023/02/28 08:45:16;;;;;;;16.50;5.38;;;5.00;1.00;;;;;;6159264;23;20616;-77
2023/02/28 08:47:43;;;;;;;11.00;4.15;;;5.10;1.00;;;;;;6159374;23;20418;-77
2023/02/28 08:50:11;;;;;;;12.18;5.03;;;5.20;1.00;;;;;;6160769;23;20215;-76
2023/02/28 08:52:38;;;;;;;12.43;3.92;;;5.60;1.00;;;;;;6159131;23;20576;-75
2023/02/28 08:55:05;;;;;;;7.00;2.75;;;6.40;1.00;;;;;;6161650;23;20285;-77
2023/02/28 08:57:33;;;;;;;11.38;4.57;;;7.50;1.00;;;;;;6157962;23;20296;-75
2023/02/28 09:00:04;;;;;;;8.07;3.08;;;8.30;1.00;;;;;;6159376;23;20283;-76
2023/02/28 09:02:31;;;;;;;11.80;4.30;;;9.50;1.00;;;;;;6159261;23;20925;-76
2023/02/28 09:04:59;;;;;;;17.87;4.20;;;10.90;1.00;;;;;;6158693;23;20510;-76
2023/02/28 09:07:26;;;;;;;13.23;4.17;;;11.60;1.00;;;;;;6157235;23;20456;-77
2023/02/28 09:09:54;;;;;;;10.67;4.10;;;12.30;1.00;;;;;;6155564;23;20415;-76
2023/02/28 09:12:22;;;;;;;12.43;5.63;;;13.00;1.00;;;;;;6159338;23;20419;-76
2023/02/28 09:14:49;;;;;;;15.30;5.03;;;14.00;1.00;;;;;;6132378;23;21344;-75
2023/02/28 09:17:18;;;;;;;10.33;4.03;;;14.80;1.00;;;;;;6159207;23;20416;-77
2023/02/28 09:19:45;;;;;;;8.80;3.00;;;15.20;1.00;;;;;;6158861;23;20913;-77
2023/02/28 09:22:12;;;;;;;14.40;4.70;;;15.50;1.00;;;;;;6158249;23;20430;-77
2023/02/28 09:24:39;;;;;;;7.93;3.50;;;15.90;1.00;;;;;;6157582;23;20468;-76
2023/02/28 09:27:07;;;;;;;9.67;4.20;;;16.50;1.00;;;;;;6157417;23;20450;-75
2023/02/28 09:29:35;;;;;;;5.60;2.00;;;17.00;1.00;;;;;;6156655;23;20503;-76
2023/02/28 09:32:02;;;;;;;9.60;2.87;;;17.50;1.00;;;;;;6157607;23;20478;-77
2023/02/28 09:34:31;;;;;;;6.40;3.00;;;17.60;1.00;;;;;;6158045;23;20494;-75
2023/02/28 09:36:58;;;;;;;6.70;3.50;;;17.20;1.00;;;;;;6158130;23;20474;-77
2023/02/28 09:39:26;;;;;;;9.20;3.50;;;16.70;1.00;;;;;;6156931;23;20460;-74
2023/02/28 09:41:54;;;;;;;9.57;3.80;;;16.30;1.00;;;;;;6158377;23;20426;-75
2023/02/28 09:44:29;;;;;;;10.10;3.87;;;16.20;1.00;;;;;;6157880;23;20434;-75
2023/02/28 09:47:00;;;;;;;6.93;3.17;;;16.40;1.00;;;;;;6157592;23;20421;-76
2023/02/28 09:49:35;;;;;;;7.90;2.50;;;16.20;1.00;;;;;;6157635;23;20764;-74
2023/02/28 09:52:08;;;;;;;12.17;3.50;;;16.70;1.00;;;;;;6159016;23;20394;-75
2023/02/28 09:54:36;;;;;;;14.37;5.00;;;17.60;1.00;;;;;;6156493;23;20430;-77
2023/02/28 09:57:10;;;;;;;7.10;3.00;;;17.20;1.00;;;;;;6157688;23;20497;-75
2023/02/28 09:59:50;;;;;;;8.30;4.83;;;16.30;1.00;;;;;;6154867;23;20405;-75
2023/02/28 10:02:57;;;;;;;8.27;3.17;;;14.90;1.00;;;;;;6156169;23;20442;-75
2023/02/28 10:05:31;;;;;;;8.40;3.20;;;14.60;1.00;;;;;;6157765;23;20442;-76
2023/02/28 10:08:07;;;;;;;15.17;3.93;;;14.60;1.00;;;;;;6159504;23;20432;-74
2023/02/28 10:10:40;;;;;;;6.83;3.30;;;14.20;1.00;;;;;;6159512;23;20887;-75
2023/02/28 10:13:16;;;;;;;8.10;4.00;;;13.70;1.00;;;;;;6160493;23;20463;-77
2023/02/28 10:15:45;;;;;;;6.37;2.40;;;13.70;1.00;;;;;;6156806;23;20498;-75
2023/02/28 10:18:16;;;;;;;11.23;2.43;;;13.90;1.00;;;;;;6156302;23;20420;-76
2023/02/28 10:20:45;;;;;;;6.30;2.33;;;14.50;1.00;;;;;;6160484;23;20400;-74
2023/02/28 10:23:20;;;;;;;10.13;3.23;;;14.30;1.00;;;;;;6159642;23;21171;-75
2023/02/28 10:25:55;;;;;;;6.30;2.50;;;13.50;1.00;;;;;;6159743;23;20431;-74
2023/02/28 10:28:22;;;;;;;6.40;2.67;;;13.90;1.00;;;;;;6159020;23;20407;-76
2023/02/28 10:30:51;;;;;;;6.73;2.63;;;14.20;1.00;;;;;;6160521;23;20479;-75
2023/02/28 10:33:22;;;;;;;10.10;3.73;;;14.10;1.00;;;;;;6159443;23;20515;-75
2023/02/28 10:35:51;;;;;;;7.83;3.30;;;14.60;1.00;;;;;;6160461;23;20899;-75
2023/02/28 10:38:24;;;;;;;7.80;3.20;;;14.60;1.00;;;;;;6159615;23;20419;-76
2023/02/28 10:40:52;;;;;;;5.50;2.70;;;15.10;1.00;;;;;;6160918;23;21225;-76
2023/02/28 10:43:22;;;;;;;7.53;2.70;;;14.40;1.00;;;;;;6159419;23;20419;-76
2023/02/28 10:46:00;;;;;;;8.60;2.90;;;14.00;1.00;;;;;;6161048;23;20840;-76
2023/02/28 10:48:40;;;;;;;7.93;2.80;;;14.30;1.00;;;;;;6159024;23;20438;-76
2023/02/28 10:51:11;;;;;;;6.57;2.93;;;14.50;1.00;;;;;;6161229;23;20830;-76
2023/02/28 10:53:53;;;;;;;7.53;3.30;;;15.10;1.00;;;;;;6159369;23;20455;-75
2023/02/28 10:56:22;;;;;;;8.17;4.30;;;15.70;1.00;;;;;;6160531;23;20432;-76
2023/02/28 10:58:55;;;;;;;10.43;3.80;;;15.80;1.00;;;;;;6160893;23;20416;-75
2023/02/28 11:01:25;;;;;;;8.17;4.20;;;15.80;1.00;;;;;;6160202;23;20480;-75
2023/02/28 11:03:53;;;;;;;11.73;4.30;;;15.80;1.00;;;;;;6161687;23;21035;-76
2023/02/28 11:06:24;;;;;;;9.23;4.23;;;16.70;1.00;;;;;;6159757;23;20429;-75
2023/02/28 11:08:54;;;;;;;6.60;3.50;;;16.70;1.00;;;;;;6161862;23;20484;-75
2023/02/28 11:11:23;;;;;;;10.90;4.40;;;17.20;1.00;;;;;;6162065;23;20418;-75
2023/02/28 11:13:53;;;;;;;17.40;5.47;;;18.00;1.00;;;;;;6162079;23;20502;-75
2023/02/28 11:16:22;;;;;;;7.10;3.70;;;18.80;1.00;;;;;;6162198;23;20434;-77
2023/02/28 11:18:51;;;;;;;5.50;3.17;;;19.30;1.00;;;;;;6161850;23;20414;-75
2023/02/28 11:21:33;;;;;;;8.20;4.30;;;17.60;1.00;;;;;;6162307;23;20429;-76
2023/02/28 11:24:05;;;;;;;9.93;3.80;;;16.60;1.00;;;;;;6161783;23;20525;-76
2023/02/28 11:26:40;;;;;;;9.63;4.07;;;16.90;1.00;;;;;;6159677;23;20907;-74
2023/02/28 11:29:14;;;;;;;8.00;3.80;;;17.40;1.00;;;;;;6161284;23;20425;-76
2023/02/28 11:31:41;;;;;;;9.10;4.20;;;18.10;1.00;;;;;;6160941;23;20450;-74
2023/02/28 11:34:27;;;;;;;12.03;4.93;;;18.70;1.00;;;;;;6163074;23;20419;-77
2023/02/28 11:36:58;;;;;;;8.73;4.57;;;18.80;1.00;;;;;;6161988;23;20933;-75
2023/02/28 11:39:26;;;;;;;7.13;3.97;;;19.10;1.00;;;;;;6160713;23;20443;-77
2023/02/28 11:42:08;;;;;;;8.23;3.90;;;19.60;1.00;;;;;;6159590;23;20432;-75
2023/02/28 11:44:54;;;;;;;9.60;4.83;;;20.80;1.00;;;;;;6161057;23;20427;-76
2023/02/28 11:47:31;;;;;;;6.33;3.90;;;22.20;1.00;;;;;;6160605;23;20456;-74
2023/02/28 11:50:13;;;;;;;6.90;4.00;;;23.30;1.00;;;;;;6162077;23;20459;-75
2023/02/28 11:52:50;;;;;;;9.17;4.40;;;22.50;1.00;;;;;;6160136;23;20427;-76
2023/02/28 11:55:21;;;;;;;12.27;5.23;;;22.40;1.00;;;;;;6134928;23;20434;-75
2023/02/28 11:58:06;;;;;;;6.80;4.30;;;21.80;1.00;;;;;;6161543;23;20434;-74
2023/02/28 12:01:09;;;;;;;9.43;3.60;;;21.80;1.00;;;;;;6160798;23;20451;-75
2023/02/28 12:03:46;;;;;;;8.70;4.30;;;21.70;1.00;;;;;;6160546;23;20893;-77
2023/02/28 12:06:22;;;;;;;8.03;4.67;;;22.20;1.00;;;;;;6135437;23;20509;-75
2023/02/28 12:09:01;;;;;;;7.07;3.90;;;22.10;1.00;;;;;;6160542;23;20434;-75
2023/02/28 12:11:40;;;;;;;11.10;5.23;;;22.00;1.00;;;;;;6161448;23;20444;-76
2023/02/28 12:14:37;;;;;;;6.00;3.80;;;22.90;1.00;;;;;;6162499;23;20428;-78
2023/02/28 12:17:17;;;;;;;8.27;7.40;;;23.40;1.00;;;;;;6161737;23;20485;-75
2023/02/28 12:19:53;;;;;;;13.13;5.27;;;23.50;1.00;;;;;;6161096;23;20533;-75
2023/02/28 12:22:30;;;;;;;7.80;3.57;;;23.70;1.00;;;;;;6161288;23;20902;-75
2023/02/28 12:25:40;;;;;;;8.03;3.23;;;23.10;1.00;;;;;;6161373;23;20760;-75
2023/02/28 12:28:11;;;;;;;7.83;3.97;;;22.30;1.00;;;;;;6109658;23;20425;-76
2023/02/28 12:30:43;;;;;;;6.73;3.27;;;21.70;1.00;;;;;;6129800;23;20536;-75
2023/02/28 12:33:15;;;;;;;5.30;2.80;;;21.60;1.00;;;;;;6130295;23;20392;-74
2023/02/28 12:35:51;;;;;;;9.60;3.77;;;22.30;1.00;;;;;;6161131;23;20444;-75
2023/02/28 12:38:23;;;;;;;7.73;3.60;;;23.70;1.00;;;;;;6121160;23;20529;-76
2023/02/28 12:40:54;;;;;;;7.57;3.80;;;24.60;1.00;;;;;;6160268;23;20441;-76
2023/02/28 12:43:28;;;;;;;9.67;4.03;;;25.00;1.00;;;;;;6134599;23;20432;-75
2023/02/28 12:45:59;;;;;;;8.53;3.90;;;24.90;1.00;;;;;;6160955;23;20980;-74
2023/02/28 12:48:32;;;;;;;7.60;3.47;;;24.50;1.00;;;;;;6159039;23;20458;-74
2023/02/28 12:51:00;;;;;;;5.80;3.20;;;23.40;1.00;;;;;;6161875;23;20431;-73
2023/02/28 12:53:32;;;;;;;7.20;3.60;;;22.10;1.00;;;;;;6161109;23;20806;-75
2023/02/28 12:56:09;;;;;;;5.83;2.77;;;21.10;1.00;;;;;;6137503;23;20457;-75
2023/02/28 12:58:43;;;;;;;5.37;3.13;;;20.50;1.00;;;;;;6146643;23;20413;-75
2023/02/28 13:01:43;;;;;;;6.07;3.53;;;19.50;1.00;;;;;;6161796;23;20795;-74
2023/02/28 13:04:55;;;;;;;15.33;5.67;;;18.70;1.00;;;;;;6161296;23;20415;-74
2023/02/28 13:07:44;;;;;;;6.40;3.37;;;18.70;1.00;;;;;;6159884;23;20419;-76
2023/02/28 13:10:11;;;;;;;8.23;5.00;;;18.70;1.00;;;;;;6161173;23;20427;-76
2023/02/28 13:12:50;;;;;;;8.20;4.13;;;17.60;1.00;;;;;;6160316;23;20502;-75
2023/02/28 13:15:24;;;;;;;9.10;3.93;;;16.20;1.00;;;;;;6161315;23;20454;-74